Time;durP1;ratioP1;P1;durP2;ratioP2;P2;SDS_P1;SDS_P2;PMS_P1;PMS_P2;Temp;Humidity;BMP_temperature;BMP_pressure;BME280_temperature;BME280_humidity;BME280_pressure;Samples;Min_cycle;Max_cycle;Signal;HPM_P1;HPM_P2
2021/04/05 00:02:20;;;;;;;49.15;26.92;;;;;;;;;;5016822;28;20049;-65
2021/04/05 00:04:46;;;;;;;52.15;27.55;;;;;;;;;;4999250;28;20021;-65
2021/04/05 00:07:11;;;;;;;48.92;27.42;;;;;;;;;;5016886;28;20124;-64
2021/04/05 00:09:39;;;;;;;47.53;26.23;;;;;;;;;;5017144;28;20478;-64
2021/04/05 00:12:06;;;;;;;51.65;28.70;;;;;;;;;;4999344;28;20054;-64
2021/04/05 00:14:32;;;;;;;47.67;27.27;;;;;;;;;;5016762;28;20381;-65
2021/04/05 00:16:57;;;;;;;50.95;26.48;;;;;;;;;;5016597;28;20038;-64
2021/04/05 00:19:23;;;;;;;44.38;25.20;;;;;;;;;;5016977;28;20105;-64
2021/04/05 00:21:48;;;;;;;49.17;27.17;;;;;;;;;;5016342;28;20053;-63
2021/04/05 00:24:14;;;;;;;46.95;26.33;;;;;;;;;;5016720;28;20034;-63
2021/04/05 00:26:39;;;;;;;46.80;25.75;;;;;;;;;;5016708;28;20059;-63
2021/04/05 00:29:05;;;;;;;48.05;26.73;;;;;;;;;;5016603;28;20018;-63
2021/04/05 00:31:30;;;;;;;44.45;26.08;;;;;;;;;;4998862;28;20038;-64
2021/04/05 00:33:56;;;;;;;45.53;25.33;;;;;;;;;;5016132;28;20026;-63
2021/04/05 00:36:21;;;;;;;51.65;26.40;;;;;;;;;;5016323;28;20057;-64
2021/04/05 00:38:46;;;;;;;51.95;27.33;;;;;;;;;;5016398;28;20452;-64
2021/04/05 00:41:13;;;;;;;50.65;26.77;;;;;;;;;;4997657;28;20026;-63
2021/04/05 00:43:40;;;;;;;47.75;26.42;;;;;;;;;;5016380;28;20109;-63
2021/04/05 00:46:07;;;;;;;49.13;26.60;;;;;;;;;;5015704;28;20038;-63
2021/04/05 00:48:33;;;;;;;45.75;26.27;;;;;;;;;;5016372;28;20041;-63
2021/04/05 00:51:00;;;;;;;49.85;26.02;;;;;;;;;;4998569;28;20417;-63
2021/04/05 00:53:28;;;;;;;51.95;26.92;;;;;;;;;;4998996;28;20026;-63
2021/04/05 00:55:54;;;;;;;47.03;25.45;;;;;;;;;;5031221;28;20454;-62
2021/04/05 00:58:19;;;;;;;41.70;24.85;;;;;;;;;;5016251;28;20060;-63
2021/04/05 01:00:50;;;;;;;45.08;25.58;;;;;;;;;;5016230;28;20029;-63
2021/04/05 01:03:18;;;;;;;46.42;24.92;;;;;;;;;;4998719;28;20030;-63
2021/04/05 01:05:44;;;;;;;47.72;25.92;;;;;;;;;;5016049;28;20018;-63
2021/04/05 01:08:10;;;;;;;43.17;23.88;;;;;;;;;;5015700;28;20030;-63
2021/04/05 01:10:37;;;;;;;47.97;24.90;;;;;;;;;;5015717;28;20032;-63
2021/04/05 01:13:03;;;;;;;46.05;25.02;;;;;;;;;;4997857;28;20508;-63
2021/04/05 01:15:29;;;;;;;44.97;25.08;;;;;;;;;;5015478;28;20462;-63
2021/04/05 01:17:54;;;;;;;45.22;24.45;;;;;;;;;;5015721;28;20048;-63
2021/04/05 01:20:20;;;;;;;48.88;25.40;;;;;;;;;;5015369;28;20026;-63
2021/04/05 01:22:47;;;;;;;49.22;25.92;;;;;;;;;;5015517;28;20022;-63
2021/04/05 01:25:14;;;;;;;49.00;24.33;;;;;;;;;;5015493;28;20049;-63
2021/04/05 01:27:40;;;;;;;50.30;25.83;;;;;;;;;;5015416;28;20426;-63
2021/04/05 01:30:11;;;;;;;45.35;24.55;;;;;;;;;;5015467;28;20026;-63
2021/04/05 01:32:36;;;;;;;47.83;24.33;;;;;;;;;;5015661;28;20501;-63
2021/04/05 01:35:03;;;;;;;46.13;25.35;;;;;;;;;;4997819;28;20026;-63
2021/04/05 01:37:28;;;;;;;47.13;25.38;;;;;;;;;;5014456;28;20486;-63
2021/04/05 01:39:54;;;;;;;44.65;24.42;;;;;;;;;;5015056;28;20018;-63
2021/04/05 01:42:19;;;;;;;46.20;25.33;;;;;;;;;;4997562;28;20034;-63
2021/04/05 01:44:44;;;;;;;51.90;26.02;;;;;;;;;;5015091;28;20104;-63
2021/04/05 01:47:10;;;;;;;46.58;25.15;;;;;;;;;;4997589;28;20053;-63
2021/04/05 01:49:38;;;;;;;50.20;24.75;;;;;;;;;;5014912;28;20057;-63
2021/04/05 01:52:04;;;;;;;45.53;25.10;;;;;;;;;;5014536;28;20470;-63
2021/04/05 01:54:32;;;;;;;49.38;25.98;;;;;;;;;;5014952;28;20029;-63
2021/04/05 01:56:57;;;;;;;50.60;25.15;;;;;;;;;;5014654;28;20033;-63
2021/04/05 01:59:23;;;;;;;53.38;25.65;;;;;;;;;;4997332;28;20014;-63
2021/04/05 02:01:48;;;;;;;44.53;24.27;;;;;;;;;;5014835;28;20026;-63
2021/04/05 02:04:14;;;;;;;51.10;24.60;;;;;;;;;;5014558;28;20061;-62
2021/04/05 02:06:40;;;;;;;46.65;24.73;;;;;;;;;;5014707;28;20026;-63
2021/04/05 02:09:07;;;;;;;45.25;24.30;;;;;;;;;;5014776;28;20017;-63
2021/04/05 02:11:36;;;;;;;44.30;24.40;;;;;;;;;;4996979;28;20061;-63
2021/04/05 02:14:02;;;;;;;47.33;24.65;;;;;;;;;;5014659;28;20048;-63
2021/04/05 02:16:28;;;;;;;45.50;23.33;;;;;;;;;;5014701;28;20030;-64
2021/04/05 02:18:54;;;;;;;42.40;23.35;;;;;;;;;;5014573;28;20018;-63
2021/04/05 02:21:23;;;;;;;47.88;24.75;;;;;;;;;;5013916;28;20478;-63
2021/04/05 02:23:49;;;;;;;41.40;22.30;;;;;;;;;;4997126;28;20058;-63
2021/04/05 02:26:23;;;;;;;46.20;23.85;;;;;;;;;;5014586;28;20029;-62
2021/04/05 02:28:50;;;;;;;43.45;22.58;;;;;;;;;;4997074;28;20030;-63
2021/04/05 02:31:17;;;;;;;43.97;22.98;;;;;;;;;;5029642;28;20025;-63
2021/04/05 02:33:45;;;;;;;41.80;22.95;;;;;;;;;;5014232;28;20066;-63
2021/04/05 02:36:12;;;;;;;42.42;23.58;;;;;;;;;;5013523;28;20470;-63
2021/04/05 02:38:41;;;;;;;40.63;22.48;;;;;;;;;;5014411;28;20037;-62
2021/04/05 02:41:06;;;;;;;42.28;22.92;;;;;;;;;;5029516;28;20072;-62
2021/04/05 02:43:33;;;;;;;41.22;21.35;;;;;;;;;;4996592;28;20489;-62
2021/04/05 02:45:59;;;;;;;36.58;20.52;;;;;;;;;;5013986;28;20049;-63
2021/04/05 02:48:26;;;;;;;38.15;21.15;;;;;;;;;;5014034;28;20034;-63
2021/04/05 02:50:51;;;;;;;36.47;20.65;;;;;;;;;;4996252;28;20513;-65
2021/04/05 02:53:18;;;;;;;39.28;21.48;;;;;;;;;;5013892;28;20026;-65
2021/04/05 02:55:43;;;;;;;36.05;20.67;;;;;;;;;;5013751;28;20064;-65
2021/04/05 02:58:09;;;;;;;36.78;21.33;;;;;;;;;;5013672;28;20037;-65
2021/04/05 03:00:36;;;;;;;39.70;21.05;;;;;;;;;;5013916;28;20026;-64
2021/04/05 03:03:01;;;;;;;45.08;21.35;;;;;;;;;;4995856;28;20065;-63
2021/04/05 03:05:28;;;;;;;38.95;21.38;;;;;;;;;;4995921;28;20410;-63
2021/04/05 03:07:54;;;;;;;39.33;21.25;;;;;;;;;;5013655;28;20136;-63
2021/04/05 03:10:21;;;;;;;40.75;21.17;;;;;;;;;;5013858;28;20037;-63
2021/04/05 03:12:48;;;;;;;38.50;20.70;;;;;;;;;;5013633;28;20049;-63
2021/04/05 03:15:14;;;;;;;42.03;21.60;;;;;;;;;;5028672;28;20025;-63
2021/04/05 03:17:40;;;;;;;34.63;19.13;;;;;;;;;;4995943;28;20062;-63
2021/04/05 03:20:09;;;;;;;35.25;20.33;;;;;;;;;;5028933;28;20378;-63
2021/04/05 03:22:35;;;;;;;36.40;20.05;;;;;;;;;;5013473;28;20030;-63
2021/04/05 03:25:01;;;;;;;36.17;19.67;;;;;;;;;;4995972;28;20482;-63
2021/04/05 03:27:27;;;;;;;31.45;18.17;;;;;;;;;;5013580;28;20045;-62
2021/04/05 03:29:53;;;;;;;33.25;19.13;;;;;;;;;;5013537;28;20097;-63
2021/04/05 03:32:20;;;;;;;35.55;19.50;;;;;;;;;;5013304;28;20081;-63
2021/04/05 03:34:52;;;;;;;40.22;19.77;;;;;;;;;;4995733;28;20417;-63
2021/04/05 03:37:18;;;;;;;36.38;19.67;;;;;;;;;;5028592;28;20378;-63
2021/04/05 03:39:44;;;;;;;35.35;19.50;;;;;;;;;;5028808;28;20347;-63
2021/04/05 03:42:14;;;;;;;30.77;18.70;;;;;;;;;;5013700;28;20033;-63
2021/04/05 03:44:40;;;;;;;32.65;17.88;;;;;;;;;;4995790;28;20113;-63
2021/04/05 03:47:09;;;;;;;31.15;18.13;;;;;;;;;;5013335;28;20133;-63
2021/04/05 03:49:40;;;;;;;33.03;17.88;;;;;;;;;;5013412;28;20032;-63
2021/04/05 03:52:26;;;;;;;37.80;19.55;;;;;;;;;;5013228;28;20065;-63
2021/04/05 03:54:54;;;;;;;33.25;18.20;;;;;;;;;;5013246;28;20034;-63
2021/04/05 03:57:22;;;;;;;32.10;18.27;;;;;;;;;;5013234;28;20539;-63
2021/04/05 03:59:49;;;;;;;29.80;18.58;;;;;;;;;;5013375;28;20026;-63
2021/04/05 04:02:16;;;;;;;30.45;18.27;;;;;;;;;;5013056;28;20409;-63
2021/04/05 04:04:50;;;;;;;42.58;20.60;;;;;;;;;;5012892;28;20030;-63
2021/04/05 04:07:27;;;;;;;37.85;20.35;;;;;;;;;;5012899;28;20077;-64
2021/04/05 04:09:55;;;;;;;72.35;30.67;;;;;;;;;;4995385;28;20474;-64
2021/04/05 04:12:22;;;;;;;70.53;27.63;;;;;;;;;;5013065;28;20421;-64
2021/04/05 04:14:47;;;;;;;53.00;24.98;;;;;;;;;;5013281;28;20025;-64
2021/04/05 04:17:13;;;;;;;60.42;27.88;;;;;;;;;;4998721;28;20367;-64
2021/04/05 04:19:39;;;;;;;47.47;22.27;;;;;;;;;;5016299;28;20117;-64
2021/04/05 04:22:06;;;;;;;37.22;19.63;;;;;;;;;;5016084;28;20470;-64
2021/04/05 04:24:35;;;;;;;54.13;23.23;;;;;;;;;;5031585;28;20065;-64
2021/04/05 04:27:01;;;;;;;53.72;23.25;;;;;;;;;;5016666;28;20064;-63
2021/04/05 04:29:27;;;;;;;46.17;21.45;;;;;;;;;;5017175;28;20070;-63
2021/04/05 04:31:52;;;;;;;35.33;18.85;;;;;;;;;;5016175;28;20140;-63
2021/04/05 04:34:19;;;;;;;31.27;17.95;;;;;;;;;;5016115;28;20484;-63
2021/04/05 04:36:45;;;;;;;31.92;18.00;;;;;;;;;;5016015;28;20055;-63
2021/04/05 04:39:12;;;;;;;37.53;19.15;;;;;;;;;;5031084;28;20081;-63
2021/04/05 04:41:39;;;;;;;31.50;17.08;;;;;;;;;;5015926;28;20045;-65
2021/04/05 04:44:05;;;;;;;45.03;20.92;;;;;;;;;;5015920;28;20077;-65
2021/04/05 04:46:32;;;;;;;35.30;19.05;;;;;;;;;;5016038;28;20069;-65
2021/04/05 04:49:05;;;;;;;36.40;18.92;;;;;;;;;;5014593;28;20026;-64
2021/04/05 04:51:30;;;;;;;35.67;19.50;;;;;;;;;;5016296;28;20030;-64
2021/04/05 04:53:57;;;;;;;32.95;19.08;;;;;;;;;;5016122;28;20025;-64
2021/04/05 04:56:23;;;;;;;35.85;19.60;;;;;;;;;;4998375;28;20116;-64
2021/04/05 04:58:50;;;;;;;35.00;18.42;;;;;;;;;;5015708;28;20021;-64
2021/04/05 05:01:17;;;;;;;34.70;18.88;;;;;;;;;;5015751;28;20029;-64
2021/04/05 05:03:45;;;;;;;35.72;19.73;;;;;;;;;;5015763;28;20444;-65
2021/04/05 05:06:12;;;;;;;31.27;18.92;;;;;;;;;;5015782;28;20034;-65
2021/04/05 05:08:38;;;;;;;37.15;21.52;;;;;;;;;;4998456;28;20450;-64
2021/04/05 05:11:06;;;;;;;37.60;21.85;;;;;;;;;;5015763;28;20057;-64
2021/04/05 05:13:31;;;;;;;32.80;19.65;;;;;;;;;;4998458;28;20049;-64
2021/04/05 05:15:57;;;;;;;35.30;21.40;;;;;;;;;;5015730;28;20030;-63
2021/04/05 05:18:24;;;;;;;36.83;21.40;;;;;;;;;;5015646;28;20026;-63
2021/04/05 05:20:51;;;;;;;39.38;22.38;;;;;;;;;;4997891;28;20423;-64
2021/04/05 05:23:17;;;;;;;41.78;22.13;;;;;;;;;;5015377;28;20030;-63
2021/04/05 05:25:43;;;;;;;42.53;21.65;;;;;;;;;;5015442;28;20471;-63
2021/04/05 05:28:09;;;;;;;35.42;20.73;;;;;;;;;;5014651;28;20097;-63
2021/04/05 05:30:35;;;;;;;33.33;18.25;;;;;;;;;;4997680;28;20455;-63
2021/04/05 05:33:03;;;;;;;28.10;17.13;;;;;;;;;;5015164;28;20045;-63
2021/04/05 05:35:31;;;;;;;38.08;20.80;;;;;;;;;;4997532;28;20091;-63
2021/04/05 05:38:05;;;;;;;31.42;18.05;;;;;;;;;;5015060;28;20026;-62
2021/04/05 05:40:33;;;;;;;47.50;28.55;;;;;;;;;;5015038;28;20034;-64
2021/04/05 05:43:17;;;;;;;38.10;24.20;;;;;;;;;;5015518;28;20586;-63
2021/04/05 05:46:01;;;;;;;25.05;16.00;;;;;;;;;;5015170;28;20104;-63
2021/04/05 05:48:45;;;;;;;24.70;14.20;;;;;;;;;;5014801;28;20058;-63
2021/04/05 05:51:17;;;;;;;22.85;12.93;;;;;;;;;;5014994;28;20378;-63
2021/04/05 05:53:46;;;;;;;18.50;12.65;;;;;;;;;;5015095;28;20462;-64
2021/04/05 05:56:11;;;;;;;21.67;12.77;;;;;;;;;;5015026;28;20021;-63
2021/04/05 05:58:49;;;;;;;19.23;13.25;;;;;;;;;;5014733;28;20026;-63
2021/04/05 06:01:33;;;;;;;22.02;13.43;;;;;;;;;;5014728;28;20026;-63
2021/04/05 06:04:11;;;;;;;22.98;14.18;;;;;;;;;;5014477;28;20053;-62
2021/04/05 06:06:40;;;;;;;18.30;11.35;;;;;;;;;;5031255;28;20036;-67
2021/04/05 06:09:21;;;;;;;20.17;12.23;;;;;;;;;;5029904;28;20092;-67
2021/04/05 06:11:56;;;;;;;17.25;10.60;;;;;;;;;;5031968;28;20076;-66
2021/04/05 06:14:31;;;;;;;14.38;8.90;;;;;;;;;;5031643;28;20033;-66
2021/04/05 06:17:06;;;;;;;12.07;8.68;;;;;;;;;;5013882;28;20029;-66
2021/04/05 06:19:47;;;;;;;13.23;9.13;;;;;;;;;;5031179;28;20067;-66
2021/04/05 06:22:25;;;;;;;13.50;7.93;;;;;;;;;;5031435;28;20051;-66
2021/04/05 06:25:01;;;;;;;10.98;6.93;;;;;;;;;;5013987;28;20029;-68
2021/04/05 06:28:02;;;;;;;9.95;5.68;;;;;;;;;;5032001;28;20037;-67
2021/04/05 06:30:28;;;;;;;;;;;;;;;;;;4990490;28;20038;-66
2021/04/05 06:33:13;;;;;;;8.13;4.90;;;;;;;;;;5023497;28;19905;-68
2021/04/05 06:36:00;;;;;;;8.07;5.03;;;;;;;;;;5032720;28;20068;-67
2021/04/05 06:38:37;;;;;;;6.78;4.65;;;;;;;;;;5030183;28;20444;-67
2021/04/05 06:41:19;;;;;;;6.93;3.83;;;;;;;;;;5029691;28;20038;-67
2021/04/05 06:44:00;;;;;;;5.03;3.70;;;;;;;;;;5029018;28;20045;-67
2021/04/05 06:46:26;;;;;;;4.63;3.97;;;;;;;;;;5032645;28;20040;-68
2021/04/05 06:48:59;;;;;;;5.18;3.88;;;;;;;;;;5032215;28;20021;-68
2021/04/05 06:51:25;;;;;;;4.00;2.55;;;;;;;;;;5032213;28;20028;-68
2021/04/05 06:53:50;;;;;;;5.65;4.07;;;;;;;;;;5031601;28;20515;-67
2021/04/05 06:56:42;;;;;;;5.50;3.90;;;;;;;;;;5031795;28;20413;-67
2021/04/05 06:59:13;;;;;;;5.13;4.05;;;;;;;;;;5013579;28;20392;-67
2021/04/05 07:01:41;;;;;;;5.30;3.72;;;;;;;;;;5033325;28;20075;-67
2021/04/05 07:04:15;;;;;;;6.18;3.95;;;;;;;;;;5015954;28;20113;-66
2021/04/05 07:06:48;;;;;;;4.55;3.55;;;;;;;;;;5033240;28;20057;-67
2021/04/05 07:09:22;;;;;;;7.13;3.17;;;;;;;;;;5015011;28;20067;-67
2021/04/05 07:11:56;;;;;;;5.13;3.88;;;;;;;;;;5032074;28;20397;-67
2021/04/05 07:14:37;;;;;;;6.43;4.13;;;;;;;;;;5032570;28;20071;-67
2021/04/05 07:17:22;;;;;;;5.97;3.70;;;;;;;;;;5032589;28;20033;-67
2021/04/05 07:20:06;;;;;;;3.95;3.47;;;;;;;;;;5032894;28;20022;-67
2021/04/05 07:22:50;;;;;;;7.22;3.67;;;;;;;;;;5032785;28;20049;-67
2021/04/05 07:25:35;;;;;;;4.90;3.17;;;;;;;;;;5015695;28;20037;-67
2021/04/05 07:28:16;;;;;;;4.47;3.05;;;;;;;;;;5032979;28;20101;-67
2021/04/05 07:30:53;;;;;;;4.38;3.53;;;;;;;;;;5015333;28;20060;-67
2021/04/05 07:33:19;;;;;;;6.20;3.80;;;;;;;;;;5033061;28;20053;-67
2021/04/05 07:36:02;;;;;;;6.13;3.67;;;;;;;;;;5032769;28;20472;-67
2021/04/05 07:38:35;;;;;;;3.88;3.22;;;;;;;;;;5032725;28;20033;-67
2021/04/05 07:41:20;;;;;;;5.43;3.00;;;;;;;;;;5032998;28;20087;-67
2021/04/05 07:43:58;;;;;;;5.03;3.20;;;;;;;;;;5014897;28;20079;-67
2021/04/05 07:46:33;;;;;;;5.07;3.60;;;;;;;;;;5032755;28;20105;-67
2021/04/05 07:49:02;;;;;;;7.15;3.95;;;;;;;;;;5032879;28;20068;-67
2021/04/05 07:51:30;;;;;;;4.03;2.05;;;;;;;;;;5036455;28;20511;-67
2021/04/05 07:53:58;;;;;;;6.25;3.13;;;;;;;;;;5036652;28;20026;-67
2021/04/05 07:56:27;;;;;;;4.18;2.42;;;;;;;;;;5036462;28;20072;-67
2021/04/05 07:58:55;;;;;;;7.20;3.40;;;;;;;;;;5018829;28;20025;-67
2021/04/05 08:01:30;;;;;;;5.40;3.55;;;;;;;;;;5036475;28;20013;-67
2021/04/05 08:04:15;;;;;;;5.22;3.35;;;;;;;;;;5018737;28;20025;-67
2021/04/05 08:06:59;;;;;;;2.92;1.77;;;;;;;;;;5036329;28;20033;-67
2021/04/05 08:09:28;;;;;;;4.05;3.17;;;;;;;;;;5018710;28;20040;-67
2021/04/05 08:12:07;;;;;;;5.03;2.22;;;;;;;;;;5036240;28;20096;-68
2021/04/05 08:14:51;;;;;;;4.13;2.47;;;;;;;;;;5018497;28;20037;-68
2021/04/05 08:17:20;;;;;;;10.18;3.47;;;;;;;;;;5002002;28;20446;-68
2021/04/05 08:19:46;;;;;;;1.30;1.13;;;;;;;;;;5036319;28;20044;-67
2021/04/05 08:22:14;;;;;;;6.28;3.30;;;;;;;;;;5035949;28;20049;-67
2021/04/05 08:24:53;;;;;;;4.10;2.72;;;;;;;;;;5035862;28;20549;-67
2021/04/05 08:27:21;;;;;;;1.42;0.93;;;;;;;;;;5018315;28;20079;-67
2021/04/05 08:30:05;;;;;;;1.35;1.25;;;;;;;;;;5035869;28;20037;-68
2021/04/05 08:32:34;;;;;;;1.40;1.02;;;;;;;;;;5036019;28;20112;-67
2021/04/05 08:35:04;;;;;;;3.72;3.03;;;;;;;;;;5018322;28;20076;-67
2021/04/05 08:37:37;;;;;;;4.93;2.45;;;;;;;;;;5035860;28;20432;-67
2021/04/05 08:40:10;;;;;;;5.93;2.83;;;;;;;;;;5035752;28;20057;-67
2021/04/05 08:42:36;;;;;;;6.35;3.25;;;;;;;;;;5035642;28;20105;-67
2021/04/05 08:45:07;;;;;;;4.70;2.83;;;;;;;;;;5017503;28;20121;-67
2021/04/05 08:47:36;;;;;;;3.67;2.35;;;;;;;;;;5035603;28;20060;-67
2021/04/05 08:50:03;;;;;;;1.98;1.40;;;;;;;;;;5035649;28;20100;-68
2021/04/05 08:52:32;;;;;;;4.78;2.83;;;;;;;;;;5035568;28;20116;-67
2021/04/05 08:55:00;;;;;;;3.72;2.30;;;;;;;;;;5035621;28;20479;-67
2021/04/05 08:57:31;;;;;;;2.47;1.70;;;;;;;;;;5017509;28;20077;-67
2021/04/05 09:00:03;;;;;;;2.95;2.15;;;;;;;;;;5035578;28;20488;-67
2021/04/05 09:02:36;;;;;;;5.15;2.03;;;;;;;;;;5034443;28;20025;-67
2021/04/05 09:05:04;;;;;;;2.58;1.42;;;;;;;;;;5017857;28;20033;-67
2021/04/05 09:07:33;;;;;;;4.70;2.35;;;;;;;;;;5035398;28;20029;-67
2021/04/05 09:10:03;;;;;;;1.40;1.13;;;;;;;;;;5017250;28;20428;-67
2021/04/05 09:12:29;;;;;;;1.27;1.17;;;;;;;;;;5035092;28;20025;-68
2021/04/05 09:14:55;;;;;;;6.38;2.88;;;;;;;;;;5035204;28;20024;-68
2021/04/05 09:17:21;;;;;;;5.00;2.88;;;;;;;;;;5017410;28;20055;-68
2021/04/05 09:20:01;;;;;;;4.10;1.90;;;;;;;;;;5017427;28;20096;-68
2021/04/05 09:22:42;;;;;;;1.92;1.45;;;;;;;;;;5035000;28;20041;-68
2021/04/05 09:25:07;;;;;;;2.83;1.48;;;;;;;;;;5035199;28;20049;-67
2021/04/05 09:27:36;;;;;;;3.30;1.50;;;;;;;;;;5034987;28;20029;-67
2021/04/05 09:30:27;;;;;;;8.40;2.40;;;;;;;;;;5017309;28;20037;-67
2021/04/05 09:33:08;;;;;;;4.65;1.88;;;;;;;;;;5034872;28;20032;-66
2021/04/05 09:35:36;;;;;;;6.35;1.98;;;;;;;;;;5017000;28;20037;-66
2021/04/05 09:38:20;;;;;;;6.25;2.70;;;;;;;;;;5034440;28;20428;-66
2021/04/05 09:41:05;;;;;;;4.53;2.20;;;;;;;;;;5034677;28;20018;-66
2021/04/05 09:43:30;;;;;;;3.83;1.33;;;;;;;;;;5016845;28;20029;-66
2021/04/05 09:46:11;;;;;;;2.05;1.20;;;;;;;;;;5034595;28;20055;-66
2021/04/05 09:48:37;;;;;;;;;;;;;;;;;;5034954;28;20028;-66
2021/04/05 09:51:23;;;;;;;11.15;2.50;;;;;;;;;;5034462;28;19905;-67
2021/04/05 09:53:49;;;;;;;19.20;3.38;;;;;;;;;;5033525;28;20049;-66
2021/04/05 09:56:15;;;;;;;9.52;2.72;;;;;;;;;;5034330;28;20022;-66
2021/04/05 09:58:45;;;;;;;7.13;2.25;;;;;;;;;;5034300;28;20033;-67
2021/04/05 10:01:22;;;;;;;13.50;3.13;;;;;;;;;;5016576;28;20032;-66
2021/04/05 10:03:50;;;;;;;1.30;0.88;;;;;;;;;;5034267;28;20045;-66
2021/04/05 10:06:17;;;;;;;2.95;2.08;;;;;;;;;;5016443;28;20108;-66
2021/04/05 10:08:44;;;;;;;10.48;1.88;;;;;;;;;;5033996;28;20029;-66
2021/04/05 10:11:10;;;;;;;5.20;2.35;;;;;;;;;;5034016;28;20032;-66
2021/04/05 10:13:42;;;;;;;2.97;1.50;;;;;;;;;;5016228;28;20061;-66
2021/04/05 10:16:08;;;;;;;7.57;1.27;;;;;;;;;;5034004;28;20072;-66
2021/04/05 10:18:34;;;;;;;4.43;1.20;;;;;;;;;;5033974;28;20040;-67
2021/04/05 10:21:00;;;;;;;4.65;1.48;;;;;;;;;;5033592;28;20505;-67
2021/04/05 10:23:30;;;;;;;4.00;2.05;;;;;;;;;;5033969;28;20021;-68
2021/04/05 10:25:57;;;;;;;5.35;1.27;;;;;;;;;;5016275;28;20124;-68
2021/04/05 10:28:24;;;;;;;4.57;2.10;;;;;;;;;;5033724;28;20484;-67
2021/04/05 10:30:57;;;;;;;10.88;2.55;;;;;;;;;;5033768;28;20036;-68
2021/04/05 10:33:26;;;;;;;3.28;1.88;;;;;;;;;;5033750;28;20048;-68
2021/04/05 10:35:54;;;;;;;5.75;1.80;;;;;;;;;;5015977;28;20033;-68
2021/04/05 10:38:20;;;;;;;3.53;1.20;;;;;;;;;;5016030;28;20473;-68
2021/04/05 10:40:47;;;;;;;3.00;0.88;;;;;;;;;;5033607;28;20109;-68
2021/04/05 10:43:16;;;;;;;7.78;0.95;;;;;;;;;;5015940;28;20473;-68
2021/04/05 10:45:46;;;;;;;5.40;2.20;;;;;;;;;;5015946;28;20013;-68
2021/04/05 10:48:15;;;;;;;2.25;1.63;;;;;;;;;;5033527;28;20383;-67
2021/04/05 10:50:44;;;;;;;7.30;1.65;;;;;;;;;;5015670;28;20428;-68
2021/04/05 10:53:13;;;;;;;17.05;3.03;;;;;;;;;;5015651;28;20168;-68
2021/04/05 10:55:40;;;;;;;10.95;1.70;;;;;;;;;;5033341;28;20022;-68
2021/04/05 10:58:09;;;;;;;6.13;2.42;;;;;;;;;;5015613;28;20040;-68
2021/04/05 11:00:36;;;;;;;0.95;0.90;;;;;;;;;;5033289;28;20017;-68
2021/04/05 11:03:11;;;;;;;1.00;0.90;;;;;;;;;;5015807;28;20068;-68
2021/04/05 11:05:38;;;;;;;4.60;1.30;;;;;;;;;;5033275;28;20030;-68
2021/04/05 11:08:04;;;;;;;6.40;2.03;;;;;;;;;;5033158;28;20497;-68
2021/04/05 11:10:31;;;;;;;13.90;3.10;;;;;;;;;;5015472;28;20033;-68
2021/04/05 11:12:57;;;;;;;10.35;2.55;;;;;;;;;;5033046;28;20021;-68
2021/04/05 11:15:25;;;;;;;3.45;1.70;;;;;;;;;;5015387;28;20120;-68
2021/04/05 11:17:55;;;;;;;3.60;1.35;;;;;;;;;;5032925;28;20064;-68
2021/04/05 11:20:26;;;;;;;4.72;1.17;;;;;;;;;;5032781;28;20524;-68
2021/04/05 11:22:55;;;;;;;3.30;2.10;;;;;;;;;;5032991;28;20052;-68
2021/04/05 11:25:25;;;;;;;4.70;1.95;;;;;;;;;;5036716;28;20032;-67
2021/04/05 11:27:55;;;;;;;5.72;2.80;;;;;;;;;;5021811;28;20052;-67
2021/04/05 11:30:24;;;;;;;4.97;1.88;;;;;;;;;;5039638;28;20044;-68
2021/04/05 11:32:52;;;;;;;1.92;1.75;;;;;;;;;;5039584;28;20034;-68
2021/04/05 11:35:19;;;;;;;19.92;3.65;;;;;;;;;;5039623;28;20125;-68
2021/04/05 11:37:46;;;;;;;3.60;1.20;;;;;;;;;;5021753;28;20062;-68
2021/04/05 11:40:13;;;;;;;11.07;2.17;;;;;;;;;;5039420;28;20025;-68
2021/04/05 11:42:42;;;;;;;2.65;1.00;;;;;;;;;;5039429;28;20033;-68
2021/04/05 11:45:08;;;;;;;6.43;2.15;;;;;;;;;;5039819;28;20457;-68
2021/04/05 11:47:35;;;;;;;6.25;1.98;;;;;;;;;;5021683;28;20059;-67
2021/04/05 11:50:10;;;;;;;6.15;1.35;;;;;;;;;;5021807;28;20108;-67
2021/04/05 11:52:51;;;;;;;15.05;3.30;;;;;;;;;;5021807;28;20053;-67
2021/04/05 11:55:37;;;;;;;5.93;1.98;;;;;;;;;;5039413;28;20393;-68
2021/04/05 11:58:12;;;;;;;2.10;1.00;;;;;;;;;;5021572;28;20029;-68
2021/04/05 12:00:45;;;;;;;23.75;3.53;;;;;;;;;;5039401;28;20068;-68
2021/04/05 12:03:29;;;;;;;1.38;1.20;;;;;;;;;;5039307;28;20596;-68
2021/04/05 12:05:58;;;;;;;1.70;0.98;;;;;;;;;;5039293;28;20048;-67
2021/04/05 12:08:28;;;;;;;14.05;2.80;;;;;;;;;;5039396;28;20045;-68
2021/04/05 12:11:00;;;;;;;6.53;2.05;;;;;;;;;;5039334;28;20026;-67
2021/04/05 12:13:43;;;;;;;3.10;1.17;;;;;;;;;;5039231;28;20030;-67
2021/04/05 12:16:09;;;;;;;9.32;3.08;;;;;;;;;;5039187;28;20043;-68
2021/04/05 12:18:36;;;;;;;7.15;2.50;;;;;;;;;;5021429;28;20028;-67
2021/04/05 12:21:06;;;;;;;3.80;1.02;;;;;;;;;;5038827;28;20037;-68
2021/04/05 12:23:32;;;;;;;8.38;1.80;;;;;;;;;;5039236;28;20255;-67
2021/04/05 12:25:57;;;;;;;5.50;1.67;;;;;;;;;;5039014;28;20539;-67
2021/04/05 12:28:31;;;;;;;6.60;2.03;;;;;;;;;;5039049;28;20022;-67
2021/04/05 12:30:57;;;;;;;6.30;2.55;;;;;;;;;;5039016;28;20037;-68
2021/04/05 12:33:24;;;;;;;1.23;1.10;;;;;;;;;;5039052;28;20059;-68
2021/04/05 12:35:56;;;;;;;2.53;1.20;;;;;;;;;;5020797;28;20028;-67
2021/04/05 12:38:29;;;;;;;5.40;2.03;;;;;;;;;;5035566;28;20063;-68
2021/04/05 12:40:55;;;;;;;8.50;1.50;;;;;;;;;;5035928;28;20018;-67
2021/04/05 12:43:23;;;;;;;3.20;1.55;;;;;;;;;;5018237;28;20465;-67
2021/04/05 12:45:53;;;;;;;2.67;1.90;;;;;;;;;;5035700;28;20048;-67
2021/04/05 12:48:22;;;;;;;2.35;1.83;;;;;;;;;;5035621;28;20025;-67
2021/04/05 12:50:52;;;;;;;3.90;2.65;;;;;;;;;;5035619;28;20017;-67
2021/04/05 12:53:22;;;;;;;2.35;1.63;;;;;;;;;;5035708;28;20494;-68
2021/04/05 12:55:47;;;;;;;3.08;2.22;;;;;;;;;;5035516;28;20402;-67
2021/04/05 12:58:14;;;;;;;5.22;2.53;;;;;;;;;;5017870;28;20017;-67
2021/04/05 13:00:41;;;;;;;3.78;2.22;;;;;;;;;;5035618;28;20033;-68
2021/04/05 13:03:12;;;;;;;1.52;1.42;;;;;;;;;;5035370;28;20017;-68
2021/04/05 13:05:53;;;;;;;2.35;1.95;;;;;;;;;;5035711;28;20034;-67
2021/04/05 14:53:48;;;;;;;5.43;3.28;;;;;;;;;;4963993;28;872423;-67
2021/04/05 14:56:15;;;;;;;3.65;2.63;;;;;;;;;;5008685;28;20042;-67
2021/04/05 14:58:40;;;;;;;8.73;3.92;;;;;;;;;;5008010;28;20069;-67
2021/04/05 15:01:15;;;;;;;3.90;3.00;;;;;;;;;;5008598;28;20072;-67
2021/04/05 15:03:54;;;;;;;11.55;5.80;;;;;;;;;;5008267;28;20042;-67
2021/04/05 15:06:23;;;;;;;1.92;1.33;;;;;;;;;;5008622;28;20081;-67
2021/04/05 15:08:53;;;;;;;7.22;3.83;;;;;;;;;;5008399;28;20041;-67
2021/04/05 15:11:19;;;;;;;10.38;5.05;;;;;;;;;;5008064;28;20471;-67
2021/04/05 15:13:47;;;;;;;4.80;3.70;;;;;;;;;;5008528;28;20487;-67
2021/04/05 15:16:16;;;;;;;9.82;5.55;;;;;;;;;;5008188;28;20468;-67
2021/04/05 15:18:42;;;;;;;1.73;1.45;;;;;;;;;;5008035;28;20147;-67
2021/04/05 15:21:08;;;;;;;7.40;4.15;;;;;;;;;;4992026;28;20071;-67
2021/04/05 15:23:35;;;;;;;10.90;5.30;;;;;;;;;;4991205;28;20034;-67
2021/04/05 15:26:01;;;;;;;4.72;2.42;;;;;;;;;;5008164;28;20488;-67
2021/04/05 15:28:34;;;;;;;6.97;3.80;;;;;;;;;;5008043;28;20061;-67
2021/04/05 15:31:00;;;;;;;3.63;2.40;;;;;;;;;;5100370;27;20035;-67
2021/04/05 15:33:27;;;;;;;6.55;2.63;;;;;;;;;;5132922;27;20380;-67
2021/04/05 15:35:52;;;;;;;12.85;4.82;;;;;;;;;;5132836;27;20357;-67
2021/04/05 15:38:18;;;;;;;15.18;6.13;;;;;;;;;;5151305;27;20110;-67
2021/04/05 15:40:46;;;;;;;6.97;3.63;;;;;;;;;;5151201;27;20114;-67
2021/04/05 15:43:17;;;;;;;7.18;3.47;;;;;;;;;;5151351;27;20383;-67
2021/04/05 15:45:42;;;;;;;7.20;3.22;;;;;;;;;;5151158;27;20026;-67
2021/04/05 15:48:09;;;;;;;10.05;4.80;;;;;;;;;;5151032;27;20365;-67
2021/04/05 15:50:40;;;;;;;4.90;2.70;;;;;;;;;;5151223;27;20027;-67
2021/04/05 15:53:12;;;;;;;3.28;2.50;;;;;;;;;;5150586;27;20045;-67
2021/04/05 15:55:43;;;;;;;6.72;4.20;;;;;;;;;;5151056;27;20084;-67
2021/04/05 15:58:10;;;;;;;9.20;4.63;;;;;;;;;;5151127;27;20027;-67
2021/04/05 16:00:37;;;;;;;14.27;6.43;;;;;;;;;;5143630;27;20072;-67
2021/04/05 16:03:02;;;;;;;42.10;17.75;;;;;;;;;;5137210;27;20019;-67
2021/04/05 16:05:28;;;;;;;15.80;9.00;;;;;;;;;;5136912;27;20019;-67
2021/04/05 16:08:04;;;;;;;5.20;3.90;;;;;;;;;;5136916;27;20050;-67
2021/04/05 16:10:35;;;;;;;1.98;1.40;;;;;;;;;;5136933;27;20388;-67
2021/04/05 16:13:00;;;;;;;;;;;;;;;;;;5136139;27;20026;-67
2021/04/05 16:15:30;;;;;;;21.15;9.73;;;;;;;;;;5136822;27;19903;-67
2021/04/05 16:18:02;;;;;;;4.90;2.60;;;;;;;;;;5136803;27;20019;-67
2021/04/05 16:20:28;;;;;;;10.52;4.50;;;;;;;;;;5136733;27;20023;-67
2021/04/05 16:23:03;;;;;;;4.75;3.17;;;;;;;;;;5136948;27;20019;-67
2021/04/05 16:25:31;;;;;;;12.73;5.68;;;;;;;;;;5136681;27;20016;-67
2021/04/05 16:27:59;;;;;;;14.35;5.50;;;;;;;;;;5118011;27;20097;-67
2021/04/05 16:30:35;;;;;;;8.73;4.60;;;;;;;;;;5135399;27;20034;-67
2021/04/05 16:33:03;;;;;;;6.43;3.83;;;;;;;;;;5136650;27;20026;-67